createdAt,value
2022-09-15T00:02:17.177Z,93581.81
2022-09-15T00:05:20.280Z,93587.22
2022-09-15T00:08:24.698Z,93604.09
2022-09-15T00:11:31.937Z,93620.84
2022-09-15T00:14:35.057Z,93609.91
2022-09-15T00:17:38.387Z,93625.59
2022-09-15T00:20:43.382Z,93629.16
2022-09-15T00:23:48.460Z,93619.31
2022-09-15T00:26:51.803Z,93627.06
2022-09-15T00:29:56.109Z,93629.50
2022-09-15T00:32:59.426Z,93642.88
2022-09-15T00:36:06.485Z,93666.38
2022-09-15T00:39:10.092Z,93660.22
2022-09-15T00:42:22.665Z,93673.69
2022-09-15T00:45:26.238Z,93669.63
2022-09-15T00:48:30.606Z,93671.81
2022-09-15T00:51:41.801Z,93667.25
2022-09-15T00:55:02.781Z,93663.56
2022-09-15T00:58:09.402Z,93662.91
2022-09-15T01:01:15.481Z,93654.06
2022-09-15T01:04:18.712Z,93641.34
2022-09-15T01:07:35.876Z,93624.13
2022-09-15T01:10:41.796Z,93623.06
2022-09-15T01:13:46.111Z,93616.66
2022-09-15T01:17:12.631Z,93617.47
2022-09-15T01:20:53.337Z,93616.84
2022-09-15T01:24:20.939Z,93601.84
2022-09-15T01:28:01.152Z,93598.75
2022-09-15T01:31:10.348Z,93583.25
2022-09-15T01:34:19.830Z,93579.94
2022-09-15T01:37:31.745Z,93562.88
2022-09-15T01:40:51.040Z,93562.44
2022-09-15T01:44:03.044Z,93568.69
2022-09-15T01:47:10.731Z,93572.94
2022-09-15T01:50:24.038Z,93578.66
2022-09-15T01:53:28.827Z,93566.69
2022-09-15T01:56:33.185Z,93560.91
2022-09-15T01:59:36.829Z,93545.69
2022-09-15T02:02:46.360Z,93538.97
2022-09-15T02:06:03.223Z,93542.28
2022-09-15T02:09:22.419Z,93563.97
2022-09-15T02:12:37.794Z,93560.19
2022-09-15T02:15:48.906Z,93565.28
2022-09-15T02:19:36.794Z,93550.22
2022-09-15T02:22:41.836Z,93549.56
2022-09-15T02:25:52.161Z,93534.31
2022-09-15T02:28:59.865Z,93540.84
2022-09-15T02:32:07.437Z,93531.75
2022-09-15T02:35:12.491Z,93533.91
2022-09-15T02:38:16.113Z,93530.53
2022-09-15T02:41:20.481Z,93523.53
2022-09-15T02:44:24.192Z,93508.50
2022-09-15T02:47:31.939Z,93505.22
2022-09-15T02:50:34.859Z,93504.47
2022-09-15T02:53:38.253Z,93491.88
2022-09-15T02:56:41.917Z,93499.44
2022-09-15T03:00:04.036Z,93505.03
2022-09-15T03:03:10.174Z,93499.72
2022-09-15T03:06:21.838Z,93508.53
2022-09-15T03:09:25.235Z,93509.81
2022-09-15T03:12:29.555Z,93508.28
2022-09-15T03:15:34.252Z,93516.25
2022-09-15T03:18:39.119Z,93505.47
2022-09-15T03:21:42.510Z,93504.16
2022-09-15T03:24:45.555Z,93506.19
2022-09-15T03:27:48.835Z,93504.91
2022-09-15T03:30:51.802Z,93502.25
2022-09-15T03:33:56.563Z,93502.16
2022-09-15T03:37:00.202Z,93512.16
2022-09-15T03:40:04.459Z,93511.41
2022-09-15T03:43:08.570Z,93511.34
2022-09-15T03:46:12.875Z,93503.97
2022-09-15T03:49:16.981Z,93499.31
2022-09-15T03:52:20.628Z,93493.94
2022-09-15T03:55:24.478Z,93490.63
2022-09-15T03:58:30.734Z,93493.81
2022-09-15T04:01:35.795Z,93479.03
2022-09-15T04:04:39.554Z,93480.94
2022-09-15T04:07:43.655Z,93468.66
2022-09-15T04:10:46.841Z,93478.59
2022-09-15T04:13:51.340Z,93495.84
2022-09-15T04:16:55.323Z,93510.41
2022-09-15T04:19:59.309Z,93494.88
2022-09-15T04:23:02.972Z,93496.72
2022-09-15T04:26:10.736Z,93464.34
2022-09-15T04:29:17.959Z,93478.97
2022-09-15T04:32:22.902Z,93482.44
2022-09-15T04:35:26.688Z,93477.75
2022-09-15T04:38:30.930Z,93452.75
2022-09-15T04:41:35.058Z,93455.91
2022-09-15T04:44:39.091Z,93457.72
2022-09-15T04:47:42.871Z,93438.09
2022-09-15T04:50:47.089Z,93430.00
2022-09-15T04:53:52.238Z,93427.06
2022-09-15T04:56:55.693Z,93429.53
2022-09-15T04:59:59.326Z,93424.19
2022-09-15T05:03:03.586Z,93434.88
2022-09-15T05:06:09.451Z,93446.31
2022-09-15T05:09:15.140Z,93469.06
2022-09-15T05:12:19.205Z,93478.09
2022-09-15T05:15:22.969Z,93480.75
2022-09-15T05:18:27.114Z,93484.91
2022-09-15T05:21:31.431Z,93490.94
2022-09-15T05:24:35.189Z,93486.88
2022-09-15T05:27:40.190Z,93482.06
2022-09-15T05:30:44.524Z,93472.56
2022-09-15T05:33:50.247Z,93463.13
2022-09-15T05:36:53.935Z,93475.22
2022-09-15T05:40:01.782Z,93470.16
2022-09-15T05:43:06.832Z,93481.88
2022-09-15T05:46:11.768Z,93476.69
2022-09-15T05:49:15.520Z,93480.59
2022-09-15T05:52:19.410Z,93473.84
2022-09-15T05:55:23.793Z,93468.56
2022-09-15T05:58:27.451Z,93486.00
2022-09-15T06:01:32.229Z,93499.47
2022-09-15T06:04:35.943Z,93479.44
2022-09-15T06:07:40.361Z,93476.16
2022-09-15T06:10:44.017Z,93467.38
2022-09-15T06:13:48.375Z,93478.75
2022-09-15T06:16:52.098Z,93483.34
2022-09-15T06:19:55.955Z,93473.88
2022-09-15T06:23:00.060Z,93464.63
2022-09-15T06:26:19.509Z,93476.25
2022-09-15T06:29:22.337Z,93486.28
2022-09-15T06:32:25.663Z,93479.03
2022-09-15T06:35:29.343Z,93479.16
2022-09-15T06:38:32.755Z,93483.88
2022-09-15T06:42:00.772Z,93475.81
2022-09-15T06:45:05.379Z,93477.16
2022-09-15T06:48:24.011Z,93484.34
2022-09-15T06:51:32.187Z,93480.34
2022-09-15T06:54:35.823Z,93487.69
2022-09-15T06:57:39.825Z,93485.53
2022-09-15T07:00:43.728Z,93472.72
2022-09-15T07:03:48.032Z,93482.72
2022-09-15T07:06:51.647Z,93479.91
2022-09-15T07:09:56.596Z,93481.84
2022-09-15T07:13:01.804Z,93480.38
2022-09-15T07:16:08.233Z,93471.53
2022-09-15T07:19:12.231Z,93475.59
2022-09-15T07:22:16.288Z,93465.00
2022-09-15T07:25:20.008Z,93465.88
2022-09-15T07:28:24.041Z,93473.47
2022-09-15T07:31:30.275Z,93472.88
2022-09-15T07:34:34.777Z,93473.00
2022-09-15T07:37:38.960Z,93475.03
2022-09-15T07:40:43.073Z,93478.31
2022-09-15T07:43:55.023Z,93471.69
2022-09-15T07:46:58.332Z,93471.03
2022-09-15T07:50:02.111Z,93468.44
2022-09-15T07:53:06.155Z,93463.09
2022-09-15T07:56:09.966Z,93459.09
2022-09-15T07:59:13.645Z,93457.06
2022-09-15T08:02:19.587Z,93449.72
2022-09-15T08:05:28.915Z,93453.19
2022-09-15T08:08:32.781Z,93440.56
2022-09-15T08:11:36.477Z,93443.38
2022-09-15T08:14:39.520Z,93442.78
2022-09-15T08:17:43.414Z,93446.16
2022-09-15T08:20:47.042Z,93450.75
2022-09-15T08:23:59.072Z,93449.88
2022-09-15T08:27:02.039Z,93459.19
2022-09-15T08:30:07.742Z,93452.25
2022-09-15T08:33:11.418Z,93463.03
2022-09-15T08:36:14.555Z,93459.72
2022-09-15T08:39:17.512Z,93462.47
2022-09-15T08:42:22.889Z,93459.75
2022-09-15T08:45:36.769Z,93463.84
2022-09-15T08:48:47.030Z,93462.59
2022-09-15T08:51:52.744Z,93470.72
2022-09-15T08:54:59.840Z,93453.97
2022-09-15T08:58:04.167Z,93464.03
2022-09-15T09:01:18.697Z,93453.41
2022-09-15T09:04:40.263Z,93458.06
2022-09-15T09:08:20.242Z,93457.56
2022-09-15T09:11:55.528Z,93459.53
2022-09-15T09:15:07.812Z,93464.22
2022-09-15T09:18:54.044Z,93470.91
2022-09-15T09:22:04.259Z,93465.50
2022-09-15T09:25:26.817Z,93476.19
2022-09-15T09:28:59.382Z,93485.00
2022-09-15T09:32:04.249Z,93482.22
2022-09-15T09:35:32.109Z,93474.84
2022-09-15T09:38:40.277Z,93472.75
2022-09-15T09:41:45.528Z,93465.97
2022-09-15T09:44:49.165Z,93476.09
2022-09-15T09:47:56.340Z,93471.25
2022-09-15T09:51:01.278Z,93468.56
2022-09-15T09:54:16.780Z,93466.63
2022-09-15T09:57:35.101Z,93468.72
2022-09-15T10:00:42.407Z,93470.03
2022-09-15T10:03:46.366Z,93471.28
2022-09-15T10:06:50.514Z,93471.00
2022-09-15T10:09:59.567Z,93486.38
2022-09-15T10:13:04.791Z,93484.31
2022-09-15T10:16:08.242Z,93493.06
2022-09-15T10:19:15.609Z,93488.28
2022-09-15T10:22:40.952Z,93491.66
2022-09-15T10:25:58.706Z,93488.22
2022-09-15T10:29:16.102Z,93498.25
2022-09-15T10:32:28.943Z,93502.81
2022-09-15T10:35:34.032Z,93502.09
2022-09-15T10:38:46.469Z,93490.75
2022-09-15T10:42:05.509Z,93494.72
2022-09-15T10:45:17.176Z,93497.88
2022-09-15T10:48:20.237Z,93513.28
2022-09-15T10:51:32.180Z,93512.69
2022-09-15T10:55:09.199Z,93514.69
2022-09-15T10:58:39.913Z,93516.69
2022-09-15T11:02:02.038Z,93505.91
2022-09-15T11:05:31.772Z,93516.56
2022-09-15T11:09:06.912Z,93519.88
2022-09-15T11:12:44.049Z,93524.59
2022-09-15T11:16:29.023Z,93519.25
2022-09-15T11:19:35.177Z,93525.16
2022-09-15T11:22:49.449Z,93531.91
2022-09-15T11:26:05.056Z,93532.56
2022-09-15T11:29:38.091Z,93532.63
2022-09-15T11:32:52.860Z,93536.66
2022-09-15T11:36:04.387Z,93530.63
2022-09-15T11:39:17.629Z,93539.25
2022-09-15T11:42:31.519Z,93533.88
2022-09-15T11:45:46.994Z,93529.88
2022-09-15T11:49:05.274Z,93535.22
2022-09-15T11:52:15.785Z,93529.13
2022-09-15T11:55:28.861Z,93535.75
2022-09-15T11:58:45.006Z,93539.13
2022-09-15T12:01:51.622Z,93540.41
2022-09-15T12:05:14.955Z,93546.25
2022-09-15T12:08:28.184Z,93541.41
2022-09-15T12:11:39.321Z,93554.84
2022-09-15T12:14:48.623Z,93552.22
2022-09-15T12:18:06.431Z,93545.53
2022-09-15T12:21:39.510Z,93553.56
2022-09-15T12:25:07.479Z,93551.59
2022-09-15T12:28:23.283Z,93552.28
2022-09-15T12:31:37.188Z,93550.88
2022-09-15T12:34:40.194Z,93554.75
2022-09-15T12:37:47.689Z,93554.25
2022-09-15T12:41:00.063Z,93558.25
2022-09-15T12:44:13.358Z,93561.59
2022-09-15T12:47:29.197Z,93556.16
2022-09-15T12:50:37.395Z,93549.41
2022-09-15T12:53:53.499Z,93544.69
2022-09-15T12:56:58.679Z,93548.56
2022-09-15T13:00:33.427Z,93544.72
2022-09-15T13:07:20.384Z,93544.16
2022-09-15T13:10:31.150Z,93551.88
2022-09-15T13:13:53.157Z,93548.00
2022-09-15T13:17:08.097Z,93558.75
2022-09-15T13:20:19.071Z,93553.41
2022-09-15T13:23:26.663Z,93549.94
2022-09-15T13:26:32.693Z,93552.59
2022-09-15T13:29:48.089Z,93558.53
2022-09-15T13:32:57.614Z,93559.84
2022-09-15T13:40:46.394Z,93554.59
2022-09-15T13:44:13.084Z,93557.81
2022-09-15T13:47:16.010Z,93564.53
2022-09-15T13:50:26.515Z,93557.81
2022-09-15T13:53:48.185Z,93553.16
2022-09-15T13:56:54.208Z,93548.91
2022-09-15T13:59:58.652Z,93544.69
2022-09-15T14:03:12.735Z,93531.94
2022-09-15T14:06:21.722Z,93541.25
2022-09-15T14:09:29.320Z,93539.28
2022-09-15T14:12:35.932Z,93532.59
2022-09-15T14:15:40.108Z,93535.88
2022-09-15T14:18:44.976Z,93531.25
2022-09-15T14:21:56.232Z,93536.59
2022-09-15T14:25:07.568Z,93529.94
2022-09-15T14:28:20.361Z,93545.34
2022-09-15T14:31:37.472Z,93537.25
2022-09-15T14:34:43.244Z,93541.19
2022-09-15T14:38:04.699Z,93546.63
2022-09-15T14:41:20.287Z,93549.19
2022-09-15T14:48:15.837Z,93555.25
2022-09-15T14:51:25.894Z,93564.78
2022-09-15T14:54:37.295Z,93558.84
2022-09-15T15:01:10.899Z,93570.84
2022-09-15T15:04:21.203Z,93563.34
2022-09-15T15:07:29.749Z,93557.94
2022-09-15T15:10:36.001Z,93545.22
2022-09-15T15:13:43.137Z,93549.09
2022-09-15T15:17:02.878Z,93556.44
2022-09-15T15:20:09.621Z,93560.47
2022-09-15T15:23:29.223Z,93561.75
2022-09-15T15:26:38.703Z,93554.31
2022-09-15T15:29:46.994Z,93563.03
2022-09-15T15:32:50.140Z,93555.63
2022-09-15T15:36:08.138Z,93569.78
2022-09-15T15:39:25.106Z,93575.06
2022-09-15T15:42:29.869Z,93562.94
2022-09-15T15:45:47.973Z,93559.75
2022-09-15T15:48:53.371Z,93567.69
2022-09-15T15:51:58.996Z,93559.66
2022-09-15T15:55:01.997Z,93559.06
2022-09-15T15:58:06.105Z,93563.78
2022-09-15T16:01:12.888Z,93566.59
2022-09-15T16:04:16.625Z,93562.44
2022-09-15T16:07:23.779Z,93559.59
2022-09-15T16:10:30.596Z,93560.22
2022-09-15T16:13:33.585Z,93560.31
2022-09-15T16:16:36.613Z,93553.66
2022-09-15T16:19:40.962Z,93553.09
2022-09-15T16:22:44.844Z,93555.69
2022-09-15T16:26:03.489Z,93561.03
2022-09-15T16:29:06.944Z,93562.22
2022-09-15T16:32:31.967Z,93566.41
2022-09-15T16:35:57.047Z,93561.72
2022-09-15T16:39:00.310Z,93570.94
2022-09-15T16:42:04.105Z,93570.44
2022-09-15T16:45:36.601Z,93571.19
2022-09-15T16:48:44.575Z,93550.38
2022-09-15T16:51:48.459Z,93555.56
2022-09-15T16:54:52.101Z,93549.41
2022-09-15T16:57:56.132Z,93541.38
2022-09-15T17:00:59.682Z,93538.63
2022-09-15T17:04:03.988Z,93533.31
2022-09-15T17:07:06.921Z,93517.88
2022-09-15T17:10:09.956Z,93519.22
2022-09-15T17:13:18.789Z,93512.50
2022-09-15T17:16:22.031Z,93512.41
2022-09-15T17:19:25.278Z,93515.81
2022-09-15T17:22:28.447Z,93506.50
2022-09-15T17:25:36.492Z,93519.09
2022-09-15T17:28:40.066Z,93523.84
2022-09-15T17:31:43.402Z,93522.56
2022-09-15T17:34:47.160Z,93516.06
2022-09-15T17:37:51.872Z,93517.50
2022-09-15T17:40:58.122Z,93511.53
2022-09-15T17:44:01.223Z,93516.09
2022-09-15T17:47:04.444Z,93508.75
2022-09-15T17:50:08.084Z,93509.38
2022-09-15T17:53:14.064Z,93506.03
2022-09-15T17:56:17.752Z,93516.06
2022-09-15T17:59:20.705Z,93508.59
2022-09-15T18:02:24.672Z,93501.16
2022-09-15T18:05:34.456Z,93487.16
2022-09-15T18:08:38.613Z,93487.16
2022-09-15T18:11:41.667Z,93459.72
2022-09-15T18:14:45.208Z,93456.28
2022-09-15T18:17:53.255Z,93451.63
2022-09-15T18:20:58.793Z,93451.75
2022-09-15T18:24:02.688Z,93449.75
2022-09-15T18:27:07.208Z,93448.41
2022-09-15T18:30:11.892Z,93457.78
2022-09-15T18:33:20.679Z,93448.50
2022-09-15T18:36:24.378Z,93438.56
2022-09-15T18:39:27.841Z,93440.56
2022-09-15T18:42:32.052Z,93439.22
2022-09-15T18:45:35.638Z,93431.75
2022-09-15T18:48:38.651Z,93435.72
2022-09-15T18:51:57.782Z,93439.53
2022-09-15T18:55:15.215Z,93439.59
2022-09-15T18:58:20.279Z,93432.72
2022-09-15T19:01:24.052Z,93434.09
2022-09-15T19:04:31.840Z,93435.53
2022-09-15T19:07:37.351Z,93443.72
2022-09-15T19:10:43.515Z,93450.53
2022-09-15T19:13:47.206Z,93442.50
2022-09-15T19:16:57.746Z,93449.16
2022-09-15T19:20:02.357Z,93454.47
2022-09-15T19:23:05.598Z,93460.91
2022-09-15T19:26:16.379Z,93459.50
2022-09-15T19:29:19.825Z,93462.09
2022-09-15T19:32:23.282Z,93466.88
2022-09-15T19:35:26.945Z,93472.31
2022-09-15T19:38:30.641Z,93471.72
2022-09-15T19:41:34.360Z,93469.72
2022-09-15T19:44:37.921Z,93480.19
2022-09-15T19:47:41.114Z,93476.75
2022-09-15T19:50:44.439Z,93476.72
2022-09-15T19:53:48.110Z,93483.22
2022-09-15T19:56:52.716Z,93483.81
2022-09-15T19:59:55.674Z,93481.19
2022-09-15T20:02:58.932Z,93477.31
2022-09-15T20:06:06.384Z,93475.34
2022-09-15T20:09:11.162Z,93472.72
2022-09-15T20:12:15.077Z,93468.09
2022-09-15T20:15:19.401Z,93468.75
2022-09-15T20:18:23.297Z,93463.25
2022-09-15T20:21:49.258Z,93459.09
2022-09-15T20:24:53.081Z,93459.09
2022-09-15T20:27:57.292Z,93448.28
2022-09-15T20:31:06.247Z,93457.03
2022-09-15T20:34:10.015Z,93448.25
2022-09-15T20:37:14.059Z,93432.16
2022-09-15T20:40:17.933Z,93426.59
2022-09-15T20:43:22.352Z,93423.78
2022-09-15T20:46:26.381Z,93435.69
2022-09-15T20:49:30.465Z,93428.34
2022-09-15T20:52:38.283Z,93423.81
2022-09-15T20:55:49.542Z,93432.00
2022-09-15T20:58:54.274Z,93433.94
2022-09-15T21:01:58.180Z,93426.56
2022-09-15T21:05:01.287Z,93434.56
2022-09-15T21:08:04.480Z,93435.78
2022-09-15T21:11:11.558Z,93440.44
2022-09-15T21:14:15.608Z,93432.34
2022-09-15T21:17:19.336Z,93426.31
2022-09-15T21:20:23.188Z,93417.53
2022-09-15T21:23:27.828Z,93422.09
2022-09-15T21:26:36.481Z,93428.19
2022-09-15T21:29:39.872Z,93437.44
2022-09-15T21:32:42.969Z,93442.34
2022-09-15T21:35:49.982Z,93439.72
2022-09-15T21:38:55.092Z,93426.28
2022-09-15T21:41:58.593Z,93419.53
2022-09-15T21:45:02.235Z,93428.19
2022-09-15T21:48:05.958Z,93425.59
2022-09-15T21:51:11.007Z,93423.56
2022-09-15T21:54:14.418Z,93420.28
2022-09-15T21:57:17.494Z,93422.94
2022-09-15T22:00:21.289Z,93420.94
2022-09-15T22:03:24.577Z,93425.63
2022-09-15T22:06:34.127Z,93413.03
2022-09-15T22:09:39.214Z,93404.38
2022-09-15T22:12:42.530Z,93411.75
2022-09-15T22:15:45.494Z,93407.00
2022-09-15T22:18:50.355Z,93392.91
2022-09-15T22:21:53.730Z,93388.78
2022-09-15T22:24:56.674Z,93378.78
2022-09-15T22:27:59.645Z,93372.00
2022-09-15T22:31:05.649Z,93376.75
2022-09-15T22:34:09.128Z,93377.66
2022-09-15T22:37:12.078Z,93377.13
2022-09-15T22:40:17.885Z,93385.81
2022-09-15T22:43:22.221Z,93379.09
2022-09-15T22:46:26.788Z,93370.50
2022-09-15T22:49:30.014Z,93353.88
2022-09-15T22:52:33.294Z,93335.16
2022-09-15T22:55:36.339Z,93352.56
2022-09-15T22:58:44.199Z,93352.00
2022-09-15T23:01:48.060Z,93356.50
2022-09-15T23:04:51.369Z,93350.31
2022-09-15T23:07:54.391Z,93341.13
2022-09-15T23:11:03.455Z,93358.09
2022-09-15T23:14:08.151Z,93363.41
2022-09-15T23:17:11.451Z,93347.94
2022-09-15T23:20:15.049Z,93359.44
2022-09-15T23:23:18.349Z,93360.19
2022-09-15T23:26:24.323Z,93366.94
2022-09-15T23:29:27.738Z,93380.97
2022-09-15T23:32:31.327Z,93377.69
2022-09-15T23:35:34.533Z,93387.16
2022-09-15T23:38:40.345Z,93383.28
2022-09-15T23:41:44.594Z,93374.38
2022-09-15T23:44:48.342Z,93364.88
2022-09-15T23:47:52.597Z,93377.00
2022-09-15T23:50:56.334Z,93356.44
2022-09-15T23:54:00.320Z,93338.56
2022-09-15T23:57:04.116Z,93329.94
